Time;durP1;ratioP1;P1;durP2;ratioP2;P2;SDS_P1;SDS_P2;PMS_P1;PMS_P2;Temp;Humidity;BMP_temperature;BMP_pressure;BME280_temperature;BME280_humidity;BME280_pressure;Samples;Min_cycle;Max_cycle;Signal;HPM_P1;HPM_P2
2023/10/30 00:00:09;;;;;;;0.88;0.88;;;1.50;99.90;;;;;;5091038;28;20199;-69
2023/10/30 00:02:39;;;;;;;0.68;0.68;;;1.50;99.90;;;;;;5091070;28;20188;-71
2023/10/30 00:05:06;;;;;;;0.50;0.50;;;1.40;99.90;;;;;;5092454;28;20196;-69
2023/10/30 00:07:32;;;;;;;0.70;0.70;;;1.40;99.90;;;;;;5090875;28;20203;-67
2023/10/30 00:09:58;;;;;;;0.60;0.60;;;1.40;99.90;;;;;;5090987;28;20237;-68
2023/10/30 00:12:24;;;;;;;0.57;0.57;;;1.30;99.90;;;;;;5091245;28;20188;-68
2023/10/30 00:14:50;;;;;;;2.17;0.93;;;1.30;99.90;;;;;;5090937;28;20602;-67
2023/10/30 00:17:16;;;;;;;0.60;0.60;;;1.30;99.90;;;;;;5091079;28;20675;-67
2023/10/30 00:19:42;;;;;;;0.70;0.70;;;1.20;99.90;;;;;;5090702;28;20196;-68
2023/10/30 00:22:11;;;;;;;0.93;0.93;;;1.20;99.90;;;;;;5090803;28;20200;-69
2023/10/30 00:24:39;;;;;;;0.60;0.60;;;1.20;99.90;;;;;;5090800;28;20223;-67
2023/10/30 00:27:05;;;;;;;0.60;0.60;;;1.10;99.90;;;;;;5091123;28;20192;-68
2023/10/30 00:29:30;;;;;;;0.70;0.70;;;1.10;99.90;;;;;;5090535;28;20180;-68
2023/10/30 00:31:56;;;;;;;0.90;0.90;;;1.10;99.90;;;;;;5090587;28;20196;-69
2023/10/30 00:34:22;;;;;;;0.77;0.77;;;1.10;99.90;;;;;;5090391;28;20196;-68
2023/10/30 00:36:47;;;;;;;0.60;0.60;;;1.10;99.90;;;;;;5091115;28;20204;-69
2023/10/30 00:39:13;;;;;;;0.60;0.60;;;1.10;99.90;;;;;;5090545;28;20691;-69
2023/10/30 00:41:39;;;;;;;0.65;0.65;;;1.00;99.90;;;;;;5101164;28;20215;-69
2023/10/30 00:44:06;;;;;;;0.65;0.65;;;1.10;99.90;;;;;;5110797;28;20198;-71
2023/10/30 00:46:31;;;;;;;0.60;0.60;;;1.00;99.90;;;;;;5110817;28;20250;-68
2023/10/30 00:48:57;;;;;;;0.68;0.68;;;1.00;99.90;;;;;;5110728;28;20222;-69
2023/10/30 00:51:22;;;;;;;0.68;0.68;;;1.00;99.90;;;;;;5110491;28;20199;-69
2023/10/30 00:53:48;;;;;;;0.70;0.70;;;1.00;99.90;;;;;;5110165;28;20207;-69
2023/10/30 00:56:14;;;;;;;0.65;0.65;;;0.90;99.90;;;;;;5093220;28;20289;-68
2023/10/30 00:58:40;;;;;;;0.65;0.65;;;0.90;99.90;;;;;;5071796;28;20264;-69
2023/10/30 01:01:06;;;;;;;0.60;0.60;;;0.90;99.90;;;;;;5090118;28;20231;-68
2023/10/30 01:03:32;;;;;;;0.63;0.63;;;0.90;99.90;;;;;;5089810;28;20618;-69
2023/10/30 01:05:59;;;;;;;0.60;0.60;;;0.90;99.90;;;;;;5090251;28;20206;-72
2023/10/30 01:08:26;;;;;;;0.60;0.60;;;0.90;99.90;;;;;;5071550;28;20246;-71
2023/10/30 01:10:52;;;;;;;0.55;0.55;;;0.90;99.90;;;;;;5071854;28;20227;-71
2023/10/30 01:13:18;;;;;;;0.70;0.70;;;0.90;99.90;;;;;;5089807;28;20216;-72
2023/10/30 01:15:44;;;;;;;0.68;0.68;;;0.90;99.90;;;;;;5071863;28;20200;-71
2023/10/30 01:18:09;;;;;;;0.80;0.80;;;0.90;99.90;;;;;;5068914;28;20207;-71
2023/10/30 01:20:41;;;;;;;0.73;0.73;;;0.90;99.90;;;;;;5051565;28;20300;-71
2023/10/30 01:23:07;;;;;;;0.57;0.57;;;0.90;99.90;;;;;;5069660;28;20188;-72
2023/10/30 01:25:33;;;;;;;0.60;0.60;;;0.90;99.90;;;;;;5051569;28;20608;-71
2023/10/30 01:27:59;;;;;;;0.60;0.60;;;0.90;99.90;;;;;;5069641;28;20189;-72
2023/10/30 01:30:24;;;;;;;0.60;0.60;;;0.90;99.90;;;;;;5051473;28;20212;-71
2023/10/30 01:32:50;;;;;;;0.63;0.63;;;0.90;99.90;;;;;;5069632;28;20239;-71
2023/10/30 01:35:16;;;;;;;0.70;0.70;;;0.90;99.90;;;;;;5051515;28;20211;-71
2023/10/30 01:37:42;;;;;;;0.65;0.65;;;0.90;99.90;;;;;;5051707;28;20197;-71
2023/10/30 01:40:09;;;;;;;2.45;2.25;;;0.90;99.90;;;;;;5069529;28;20285;-71
2023/10/30 01:42:35;;;;;;;0.70;0.70;;;0.90;99.90;;;;;;5051304;28;20192;-71
2023/10/30 01:45:01;;;;;;;0.80;0.80;;;0.90;99.90;;;;;;5051267;28;20227;-71
2023/10/30 01:47:27;;;;;;;0.60;0.60;;;0.90;99.90;;;;;;5069160;28;20243;-71
2023/10/30 01:49:55;;;;;;;0.70;0.70;;;0.90;99.90;;;;;;5085522;28;20199;-71
2023/10/30 01:52:22;;;;;;;0.65;0.65;;;0.90;99.90;;;;;;5089404;28;20227;-71
2023/10/30 01:54:50;;;;;;;0.70;0.70;;;0.90;99.90;;;;;;5093831;28;20307;-71
2023/10/30 01:57:18;;;;;;;0.60;0.60;;;0.90;99.90;;;;;;5091122;28;20203;-72
2023/10/30 01:59:45;;;;;;;0.70;0.70;;;0.90;99.90;;;;;;5109719;28;20203;-71
2023/10/30 02:02:11;;;;;;;0.70;0.70;;;0.90;99.90;;;;;;5109660;28;20227;-71
2023/10/30 02:04:37;;;;;;;0.60;0.60;;;0.90;99.90;;;;;;5108987;28;20199;-71
2023/10/30 02:07:03;;;;;;;0.70;0.70;;;0.90;99.90;;;;;;5109316;28;20202;-70
2023/10/30 02:09:32;;;;;;;0.60;0.60;;;0.90;99.90;;;;;;5098964;28;20200;-70
2023/10/30 02:11:58;;;;;;;0.60;0.60;;;0.90;99.90;;;;;;5088714;28;20257;-70
2023/10/30 02:14:24;;;;;;;0.50;0.50;;;0.90;99.90;;;;;;5091150;28;20188;-70
2023/10/30 02:16:51;;;;;;;0.60;0.60;;;0.90;99.90;;;;;;5109686;28;20663;-70
2023/10/30 02:19:23;;;;;;;0.60;0.60;;;0.90;99.90;;;;;;5109467;28;20269;-70
2023/10/30 02:21:51;;;;;;;0.68;0.68;;;0.90;99.90;;;;;;5109327;28;20207;-70
2023/10/30 02:24:17;;;;;;;0.70;0.70;;;0.90;99.90;;;;;;5109385;28;20195;-70
2023/10/30 02:26:42;;;;;;;0.60;0.60;;;0.90;99.90;;;;;;5109098;28;20195;-71
2023/10/30 02:29:09;;;;;;;0.60;0.60;;;0.90;99.90;;;;;;5109084;28;20210;-70
2023/10/30 02:31:35;;;;;;;0.60;0.60;;;0.80;99.90;;;;;;5108995;28;20230;-70
2023/10/30 02:34:01;;;;;;;0.70;0.70;;;0.80;99.90;;;;;;5109319;28;20604;-69
2023/10/30 02:36:26;;;;;;;0.60;0.60;;;0.80;99.90;;;;;;5109275;28;20642;-69
2023/10/30 02:38:53;;;;;;;0.60;0.60;;;0.80;99.90;;;;;;5109288;28;20195;-70
2023/10/30 02:41:19;;;;;;;0.60;0.60;;;0.80;99.90;;;;;;5109122;28;20921;-69
2023/10/30 02:43:45;;;;;;;0.80;0.80;;;0.80;99.90;;;;;;5109140;28;20620;-69
2023/10/30 02:46:10;;;;;;;0.60;0.60;;;0.80;99.90;;;;;;5104865;28;20196;-71
2023/10/30 02:48:36;;;;;;;0.70;0.70;;;0.80;99.90;;;;;;5070718;28;20245;-70
2023/10/30 02:51:02;;;;;;;0.60;0.60;;;0.80;99.90;;;;;;5088862;28;20200;-70
2023/10/30 02:53:28;;;;;;;0.60;0.60;;;0.90;99.90;;;;;;5102923;28;20670;-70
2023/10/30 02:55:53;;;;;;;0.60;0.60;;;0.80;99.90;;;;;;5094743;28;20224;-69
2023/10/30 02:58:19;;;;;;;0.80;0.80;;;0.80;99.90;;;;;;5088655;28;20236;-70
2023/10/30 03:00:45;;;;;;;0.63;0.63;;;0.80;99.90;;;;;;5088535;28;20578;-70
2023/10/30 03:03:10;;;;;;;0.60;0.60;;;0.80;99.90;;;;;;5088744;28;20556;-69
2023/10/30 03:05:36;;;;;;;0.60;0.60;;;0.80;99.90;;;;;;5088697;28;20199;-71
2023/10/30 03:08:02;;;;;;;0.60;0.60;;;0.80;99.90;;;;;;5092451;28;20654;-70
2023/10/30 03:10:28;;;;;;;0.68;0.68;;;0.80;99.90;;;;;;5091654;28;20200;-70
2023/10/30 03:12:54;;;;;;;0.70;0.70;;;0.80;99.90;;;;;;5072315;28;20570;-70
2023/10/30 03:15:20;;;;;;;0.55;0.55;;;0.80;99.90;;;;;;5072177;28;20192;-72
2023/10/30 03:17:45;;;;;;;0.60;0.60;;;0.80;99.90;;;;;;5072389;28;20200;-75
2023/10/30 03:20:12;;;;;;;0.60;0.60;;;0.80;99.90;;;;;;5053770;28;20193;-73
2023/10/30 03:22:38;;;;;;;0.50;0.50;;;0.80;99.90;;;;;;5071883;28;20552;-74
2023/10/30 03:25:04;;;;;;;0.88;0.88;;;0.80;99.90;;;;;;5053835;28;20673;-69
2023/10/30 03:27:30;;;;;;;0.57;0.57;;;0.80;99.90;;;;;;5071754;28;20193;-68
2023/10/30 03:29:56;;;;;;;0.73;0.73;;;0.80;99.90;;;;;;5077866;28;20544;-68
2023/10/30 03:32:21;;;;;;;0.70;0.70;;;0.80;99.90;;;;;;5073584;28;20207;-70
2023/10/30 03:34:47;;;;;;;0.70;0.70;;;0.70;99.90;;;;;;5092177;28;20195;-68
2023/10/30 03:37:13;;;;;;;0.60;0.60;;;0.80;99.90;;;;;;5091964;28;20188;-70
2023/10/30 03:39:38;;;;;;;0.70;0.70;;;0.70;99.90;;;;;;5091976;28;20657;-69
2023/10/30 03:42:04;;;;;;;0.70;0.70;;;0.70;99.90;;;;;;5090287;28;20212;-69
2023/10/30 03:44:30;;;;;;;0.60;0.60;;;0.70;99.90;;;;;;5053308;28;20902;-69
2023/10/30 03:46:56;;;;;;;0.60;0.60;;;0.70;99.90;;;;;;5071476;28;20188;-70
2023/10/30 03:49:21;;;;;;;0.63;0.63;;;0.70;99.90;;;;;;5064654;28;20203;-70
2023/10/30 03:51:48;;;;;;;0.60;0.60;;;0.70;99.90;;;;;;5091626;28;20312;-70
2023/10/30 03:54:14;;;;;;;0.60;0.60;;;0.70;99.90;;;;;;5091974;28;20945;-70
2023/10/30 03:56:39;;;;;;;2.92;1.25;;;0.70;99.90;;;;;;5093387;28;20212;-69
2023/10/30 03:59:05;;;;;;;0.70;0.70;;;0.70;99.90;;;;;;5111791;28;20267;-69
2023/10/30 04:01:31;;;;;;;0.60;0.60;;;0.70;99.90;;;;;;5099099;28;20706;-69
2023/10/30 04:03:56;;;;;;;0.70;0.70;;;0.70;99.90;;;;;;5104200;28;20320;-69
2023/10/30 04:06:22;;;;;;;0.70;0.70;;;0.70;99.90;;;;;;5111653;28;20252;-69
2023/10/30 04:08:48;;;;;;;0.60;0.60;;;0.70;99.90;;;;;;5112248;28;20199;-70
2023/10/30 04:11:17;;;;;;;0.60;0.60;;;0.70;99.90;;;;;;5092485;28;20200;-69
2023/10/30 04:13:44;;;;;;;0.65;0.65;;;0.70;99.90;;;;;;5111589;28;20198;-70
2023/10/30 04:16:11;;;;;;;0.60;0.60;;;0.70;99.90;;;;;;5093190;28;20202;-70
2023/10/30 04:18:38;;;;;;;0.60;0.60;;;0.70;99.90;;;;;;5110844;28;20712;-70
2023/10/30 04:21:04;;;;;;;0.70;0.70;;;0.60;99.90;;;;;;5111461;28;20772;-68
2023/10/30 04:23:30;;;;;;;0.55;0.55;;;0.70;99.90;;;;;;5111403;28;20207;-69
2023/10/30 04:25:56;;;;;;;0.60;0.60;;;0.70;99.90;;;;;;5111811;28;20184;-70
2023/10/30 04:28:22;;;;;;;0.60;0.60;;;0.70;99.90;;;;;;5092985;28;20210;-70
2023/10/30 04:30:47;;;;;;;0.60;0.60;;;0.60;99.90;;;;;;5092851;28;20200;-70
2023/10/30 04:33:13;;;;;;;0.65;0.65;;;0.60;99.90;;;;;;5111291;28;20609;-70
2023/10/30 04:35:39;;;;;;;0.80;0.80;;;0.60;99.90;;;;;;5092914;28;20206;-70
2023/10/30 04:38:04;;;;;;;0.60;0.60;;;0.60;99.90;;;;;;5110951;28;20678;-71
2023/10/30 04:40:30;;;;;;;0.75;0.75;;;0.60;99.90;;;;;;5091235;28;20202;-70
2023/10/30 04:42:56;;;;;;;0.60;0.60;;;0.70;99.90;;;;;;5072407;28;20216;-70
2023/10/30 04:45:21;;;;;;;0.70;0.70;;;0.60;99.90;;;;;;5099646;28;20569;-70
2023/10/30 04:47:47;;;;;;;0.60;0.60;;;0.60;99.90;;;;;;5092889;28;20195;-70
2023/10/30 04:50:13;;;;;;;0.60;0.60;;;0.60;99.90;;;;;;5111030;28;20195;-70
2023/10/30 04:52:38;;;;;;;0.70;0.70;;;0.60;99.90;;;;;;5110972;28;20200;-70
2023/10/30 04:55:04;;;;;;;0.80;0.80;;;0.60;99.90;;;;;;5103382;28;20220;-70
2023/10/30 04:57:30;;;;;;;0.60;0.60;;;0.60;99.90;;;;;;5072267;28;20200;-70
2023/10/30 04:59:56;;;;;;;0.70;0.70;;;0.60;99.90;;;;;;5090435;28;20218;-70
2023/10/30 05:02:21;;;;;;;0.52;0.52;;;0.60;99.90;;;;;;5071668;28;20243;-70
2023/10/30 05:04:47;;;;;;;0.65;0.65;;;0.60;99.90;;;;;;5074097;28;20197;-70
2023/10/30 05:07:13;;;;;;;0.68;0.68;;;0.60;99.90;;;;;;5052443;28;20193;-68
2023/10/30 05:09:38;;;;;;;0.68;0.68;;;0.70;99.90;;;;;;5052108;28;20205;-70
2023/10/30 05:12:05;;;;;;;0.65;0.65;;;0.60;99.90;;;;;;5069964;28;20203;-69
2023/10/30 05:14:30;;;;;;;0.70;0.70;;;0.60;99.90;;;;;;5070069;28;20195;-70
2023/10/30 05:16:56;;;;;;;0.85;0.80;;;0.60;99.90;;;;;;5070030;28;20287;-69
2023/10/30 05:19:21;;;;;;;0.70;0.70;;;0.60;99.90;;;;;;5069924;28;20275;-69
2023/10/30 05:21:47;;;;;;;0.68;0.68;;;0.60;99.90;;;;;;5069809;28;20289;-70
2023/10/30 05:24:13;;;;;;;0.70;0.70;;;0.60;99.90;;;;;;5069915;28;20197;-69
2023/10/30 05:26:38;;;;;;;0.85;0.85;;;0.60;99.90;;;;;;5051555;28;20197;-69
2023/10/30 05:29:04;;;;;;;0.70;0.70;;;0.60;99.90;;;;;;5069448;28;20228;-70
2023/10/30 05:31:30;;;;;;;0.50;0.50;;;0.60;99.90;;;;;;5068824;28;20197;-70
2023/10/30 05:33:55;;;;;;;0.80;0.80;;;0.60;99.90;;;;;;5077560;28;20699;-69
2023/10/30 05:36:21;;;;;;;1.00;1.00;;;0.60;99.90;;;;;;5073484;28;20680;-72
2023/10/30 05:38:47;;;;;;;0.70;0.70;;;0.60;99.90;;;;;;5069216;28;20374;-74
2023/10/30 05:41:12;;;;;;;1.42;1.33;;;0.60;99.90;;;;;;5074990;28;20215;-74
2023/10/30 05:43:38;;;;;;;1.15;1.15;;;0.60;99.90;;;;;;5089730;28;20208;-73
2023/10/30 05:46:04;;;;;;;0.98;0.85;;;0.60;99.90;;;;;;5071184;28;20196;-70
2023/10/30 05:48:29;;;;;;;0.60;0.60;;;0.60;99.90;;;;;;5071147;28;20278;-70
2023/10/30 05:50:55;;;;;;;0.60;0.60;;;0.60;99.90;;;;;;5071369;28;20287;-70
2023/10/30 05:53:21;;;;;;;0.60;0.60;;;0.60;99.90;;;;;;5071023;28;20204;-71
2023/10/30 05:55:46;;;;;;;0.60;0.60;;;0.60;99.90;;;;;;5080795;28;20240;-70
2023/10/30 05:58:12;;;;;;;0.70;0.70;;;0.60;99.90;;;;;;5089296;28;20196;-70
2023/10/30 06:00:38;;;;;;;0.60;0.60;;;0.60;99.90;;;;;;5088892;28;20274;-70
2023/10/30 06:03:07;;;;;;;0.77;0.77;;;0.60;99.90;;;;;;5089109;28;20193;-70
2023/10/30 06:05:33;;;;;;;2.45;1.50;;;0.60;99.90;;;;;;5087775;28;20280;-70
2023/10/30 06:07:59;;;;;;;0.80;0.80;;;0.60;99.90;;;;;;5089243;28;20196;-70
2023/10/30 06:10:24;;;;;;;1.80;1.65;;;0.60;99.90;;;;;;5089069;28;20196;-71
2023/10/30 06:12:50;;;;;;;0.70;0.70;;;0.60;99.90;;;;;;5088984;28;20211;-70
2023/10/30 06:15:16;;;;;;;0.70;0.70;;;0.60;99.90;;;;;;5089208;28;20724;-70
2023/10/30 06:17:42;;;;;;;2.47;1.23;;;0.50;99.90;;;;;;5089392;28;20192;-70
2023/10/30 06:20:09;;;;;;;0.93;0.93;;;0.50;99.90;;;;;;5089053;28;20377;-71
2023/10/30 06:22:34;;;;;;;0.60;0.60;;;0.60;99.90;;;;;;5088911;28;20271;-71
2023/10/30 06:25:00;;;;;;;0.57;0.57;;;0.60;99.90;;;;;;5089021;28;20715;-70
2023/10/30 06:27:27;;;;;;;0.65;0.65;;;0.60;99.90;;;;;;5088970;28;20275;-70
2023/10/30 06:29:52;;;;;;;0.52;0.52;;;0.60;99.90;;;;;;5089094;28;20287;-70
2023/10/30 06:32:18;;;;;;;0.82;0.82;;;0.60;99.90;;;;;;5075267;28;20280;-70
2023/10/30 06:34:44;;;;;;;0.80;0.80;;;0.60;99.90;;;;;;5068785;28;20208;-70
2023/10/30 06:37:09;;;;;;;1.00;1.00;;;0.60;99.90;;;;;;5071966;28;20207;-69
2023/10/30 06:39:35;;;;;;;0.80;0.80;;;0.60;99.90;;;;;;5087345;28;20843;-69
2023/10/30 06:42:02;;;;;;;0.50;0.50;;;0.60;99.90;;;;;;5090971;28;20219;-70
2023/10/30 06:44:28;;;;;;;0.60;0.60;;;0.60;99.90;;;;;;5091367;28;20192;-70
2023/10/30 06:46:56;;;;;;;0.95;0.95;;;0.60;99.90;;;;;;5091193;28;20200;-70
2023/10/30 06:49:21;;;;;;;0.70;0.70;;;0.60;99.90;;;;;;5090843;28;20272;-69
2023/10/30 06:51:47;;;;;;;0.60;0.60;;;0.60;99.90;;;;;;5092723;28;20211;-70
2023/10/30 06:54:14;;;;;;;0.55;0.55;;;0.60;99.90;;;;;;5091335;28;20294;-70
2023/10/30 06:56:39;;;;;;;0.60;0.60;;;0.60;99.90;;;;;;5083384;28;20208;-70
2023/10/30 06:59:05;;;;;;;0.98;0.98;;;0.60;99.90;;;;;;5092824;28;20196;-70
2023/10/30 07:01:43;;;;;;;0.68;0.68;;;0.60;99.90;;;;;;5092488;28;20269;-69
2023/10/30 07:04:12;;;;;;;0.65;0.65;;;0.60;99.90;;;;;;5103647;28;20244;-70
2023/10/30 07:06:38;;;;;;;0.52;0.52;;;0.60;99.90;;;;;;5094297;28;20634;-69
2023/10/30 07:09:08;;;;;;;1.35;1.25;;;0.60;99.90;;;;;;5112926;28;20188;-69
2023/10/30 07:11:34;;;;;;;0.77;0.77;;;0.60;99.90;;;;;;5112877;28;20274;-69
2023/10/30 07:14:03;;;;;;;0.82;0.82;;;0.60;99.90;;;;;;5113104;28;20248;-69
2023/10/30 07:16:30;;;;;;;0.70;0.70;;;0.60;99.90;;;;;;5112686;28;20239;-69
2023/10/30 07:19:05;;;;;;;0.80;0.80;;;0.60;99.90;;;;;;5112839;28;20196;-70
2023/10/30 07:21:31;;;;;;;0.60;0.60;;;0.60;99.90;;;;;;5112553;28;20674;-69
2023/10/30 07:23:57;;;;;;;0.70;0.70;;;0.60;99.90;;;;;;5112641;28;20187;-69
2023/10/30 07:26:23;;;;;;;0.65;0.65;;;0.60;99.90;;;;;;5112369;28;20199;-70
2023/10/30 07:28:49;;;;;;;0.85;0.85;;;0.60;99.90;;;;;;5111824;28;20252;-69
2023/10/30 07:31:17;;;;;;;1.40;0.77;;;0.70;99.90;;;;;;5112763;28;20203;-69
2023/10/30 07:33:43;;;;;;;0.70;0.70;;;0.70;99.90;;;;;;5087931;28;20200;-69
2023/10/30 07:36:09;;;;;;;1.00;0.95;;;0.80;99.90;;;;;;5092091;28;20226;-69
2023/10/30 07:38:36;;;;;;;0.70;0.70;;;0.80;99.90;;;;;;5092039;28;20192;-69
2023/10/30 07:41:02;;;;;;;1.27;1.17;;;0.70;99.90;;;;;;5091826;28;20239;-69
2023/10/30 07:43:28;;;;;;;0.77;0.77;;;0.70;99.90;;;;;;5091853;28;20570;-69
2023/10/30 07:45:54;;;;;;;0.55;0.55;;;0.70;99.90;;;;;;5091805;28;20297;-70
2023/10/30 07:48:20;;;;;;;0.60;0.60;;;0.70;99.90;;;;;;5091763;28;20758;-70
2023/10/30 07:50:47;;;;;;;0.60;0.60;;;0.70;99.90;;;;;;5073579;28;20200;-69
2023/10/30 07:53:14;;;;;;;0.80;0.80;;;0.70;99.90;;;;;;5103896;28;20567;-69
2023/10/30 07:55:40;;;;;;;0.70;0.70;;;0.70;99.90;;;;;;5099190;28;20230;-69
2023/10/30 07:58:06;;;;;;;0.70;0.70;;;0.60;99.90;;;;;;5091653;28;20200;-69
2023/10/30 08:00:34;;;;;;;0.70;0.70;;;0.70;99.90;;;;;;5091512;28;20228;-69
2023/10/30 08:03:00;;;;;;;0.55;0.55;;;0.70;99.90;;;;;;5091584;28;20564;-69
2023/10/30 08:05:26;;;;;;;0.60;0.60;;;0.70;99.90;;;;;;5091400;28;20551;-69
2023/10/30 08:07:52;;;;;;;1.35;1.25;;;0.70;99.90;;;;;;5091407;28;20203;-69
2023/10/30 08:10:18;;;;;;;0.70;0.70;;;0.70;99.90;;;;;;5091384;28;20188;-69
2023/10/30 08:12:44;;;;;;;0.77;0.77;;;0.70;99.90;;;;;;5091385;28;20196;-69
2023/10/30 08:15:10;;;;;;;0.60;0.60;;;0.70;99.90;;;;;;5073091;28;20211;-69
2023/10/30 08:17:36;;;;;;;0.75;0.75;;;0.70;99.90;;;;;;5091205;28;20203;-69
2023/10/30 08:20:05;;;;;;;0.65;0.65;;;0.70;99.90;;;;;;5090972;28;20192;-69
2023/10/30 08:22:32;;;;;;;0.70;0.70;;;0.70;99.90;;;;;;5090817;28;20321;-69
2023/10/30 08:24:59;;;;;;;0.80;0.80;;;0.70;99.90;;;;;;5091007;28;20690;-69
2023/10/30 08:27:24;;;;;;;0.70;0.70;;;0.70;99.90;;;;;;5090845;28;20211;-69
2023/10/30 08:29:50;;;;;;;0.60;0.60;;;0.70;99.90;;;;;;5091038;28;20192;-69
2023/10/30 08:32:16;;;;;;;0.60;0.60;;;0.70;99.90;;;;;;5091183;28;20196;-69
2023/10/30 08:34:41;;;;;;;0.60;0.60;;;0.70;99.90;;;;;;5090854;28;20261;-69
2023/10/30 08:37:07;;;;;;;0.60;0.60;;;0.70;99.90;;;;;;5090802;28;20261;-69
2023/10/30 08:39:33;;;;;;;0.60;0.60;;;0.70;99.90;;;;;;5090833;28;20200;-68
2023/10/30 08:41:58;;;;;;;0.60;0.60;;;0.70;99.90;;;;;;5090679;28;20219;-70
2023/10/30 08:44:24;;;;;;;0.70;0.70;;;0.70;99.90;;;;;;5090551;28;20195;-69
2023/10/30 08:46:51;;;;;;;0.70;0.70;;;0.70;99.90;;;;;;5090851;28;20188;-69
2023/10/30 08:49:16;;;;;;;0.70;0.70;;;0.70;99.90;;;;;;5090370;28;20200;-69
2023/10/30 08:51:43;;;;;;;0.70;0.70;;;0.70;99.90;;;;;;5090632;28;20200;-68
2023/10/30 08:54:09;;;;;;;0.68;0.68;;;0.70;99.90;;;;;;5090474;28;20230;-69
2023/10/30 08:56:39;;;;;;;0.60;0.60;;;0.70;99.90;;;;;;5110501;28;20271;-69
2023/10/30 08:59:05;;;;;;;0.75;0.75;;;0.70;99.90;;;;;;5110743;28;20196;-68
2023/10/30 09:01:31;;;;;;;0.60;0.60;;;0.70;99.90;;;;;;5110406;28;20208;-68
2023/10/30 09:03:57;;;;;;;0.70;0.70;;;0.70;99.90;;;;;;5110144;28;20267;-69
2023/10/30 09:06:23;;;;;;;0.75;0.75;;;0.70;99.90;;;;;;5110508;28;20192;-69
2023/10/30 09:08:49;;;;;;;0.70;0.70;;;0.70;99.90;;;;;;5110544;28;20646;-69
2023/10/30 09:11:15;;;;;;;0.70;0.70;;;0.70;99.90;;;;;;5110570;28;20231;-69
2023/10/30 09:13:40;;;;;;;0.70;0.70;;;0.70;99.90;;;;;;5110444;28;20199;-69
2023/10/30 09:16:06;;;;;;;0.60;0.60;;;0.80;99.90;;;;;;5110639;28;20195;-69
2023/10/30 09:18:32;;;;;;;0.60;0.60;;;0.80;99.90;;;;;;5110466;28;20200;-69
2023/10/30 09:20:57;;;;;;;0.75;0.75;;;0.70;99.90;;;;;;5110189;28;20231;-69
2023/10/30 09:23:23;;;;;;;0.60;0.60;;;0.80;99.90;;;;;;5091803;28;20654;-68
2023/10/30 09:25:49;;;;;;;0.60;0.60;;;0.80;99.90;;;;;;5109988;28;20200;-69
2023/10/30 09:28:14;;;;;;;0.70;0.70;;;0.80;99.90;;;;;;5110275;28;20219;-68
2023/10/30 09:30:40;;;;;;;0.60;0.60;;;0.80;99.90;;;;;;5110396;28;20195;-68
2023/10/30 09:33:07;;;;;;;0.60;0.60;;;0.70;99.90;;;;;;5092108;28;20199;-68
2023/10/30 09:35:33;;;;;;;0.60;0.60;;;0.70;99.90;;;;;;5110086;28;20191;-66
2023/10/30 09:37:59;;;;;;;0.60;0.60;;;0.70;99.90;;;;;;5110042;28;20211;-65
2023/10/30 09:40:27;;;;;;;0.60;0.60;;;0.70;99.90;;;;;;5109722;28;20234;-65
2023/10/30 09:42:54;;;;;;;0.60;0.60;;;0.70;99.90;;;;;;5110006;28;20202;-67
2023/10/30 09:45:24;;;;;;;0.73;0.70;;;0.70;99.90;;;;;;5109266;28;20626;-65
2023/10/30 09:47:54;;;;;;;0.80;0.80;;;0.70;99.90;;;;;;5109927;28;20663;-65
2023/10/30 09:50:21;;;;;;;0.75;0.75;;;0.70;99.90;;;;;;5110152;28;20193;-66
2023/10/30 09:52:49;;;;;;;0.60;0.60;;;0.70;99.90;;;;;;5109762;28;20672;-65
2023/10/30 09:55:18;;;;;;;0.63;0.63;;;0.70;99.90;;;;;;5101108;28;20211;-66
2023/10/30 09:57:46;;;;;;;0.70;0.70;;;0.60;99.90;;;;;;5089680;28;20681;-65
2023/10/30 10:00:13;;;;;;;0.60;0.60;;;0.70;99.90;;;;;;5089539;28;20270;-65
2023/10/30 10:02:39;;;;;;;0.60;0.60;;;0.70;99.90;;;;;;5089237;28;20212;-65
2023/10/30 10:05:05;;;;;;;0.70;0.70;;;0.70;99.90;;;;;;5088944;28;20250;-65
2023/10/30 10:07:32;;;;;;;0.60;0.60;;;0.70;99.90;;;;;;5089172;28;20208;-66
2023/10/30 10:10:02;;;;;;;0.60;0.60;;;0.60;99.90;;;;;;5089156;28;20199;-68
2023/10/30 10:12:33;;;;;;;0.70;0.70;;;0.70;99.90;;;;;;5088843;28;20206;-67
2023/10/30 10:14:59;;;;;;;0.55;0.55;;;0.80;99.90;;;;;;5088707;28;20200;-69
2023/10/30 10:17:25;;;;;;;0.57;0.57;;;0.70;99.90;;;;;;5088218;28;20214;-68
2023/10/30 10:19:51;;;;;;;0.50;0.50;;;0.80;99.90;;;;;;5070828;28;20249;-68
2023/10/30 10:22:30;;;;;;;0.60;0.60;;;0.80;99.90;;;;;;5088993;28;20568;-69
2023/10/30 10:24:56;;;;;;;0.80;0.80;;;0.80;99.90;;;;;;5070780;28;20226;-69
2023/10/30 10:27:25;;;;;;;0.60;0.60;;;0.90;99.90;;;;;;5088676;28;20241;-69
2023/10/30 10:29:55;;;;;;;0.50;0.50;;;0.80;99.90;;;;;;5088920;28;20742;-69
2023/10/30 10:32:28;;;;;;;0.70;0.70;;;0.90;99.90;;;;;;5088748;28;20738;-69
2023/10/30 10:34:58;;;;;;;0.60;0.60;;;0.90;99.90;;;;;;5085785;28;20289;-68
2023/10/30 10:37:23;;;;;;;0.50;0.50;;;1.00;99.90;;;;;;5068889;28;20197;-68
2023/10/30 10:39:53;;;;;;;0.60;0.60;;;1.00;99.90;;;;;;5068925;28;20234;-68
2023/10/30 10:42:20;;;;;;;0.55;0.55;;;1.00;99.90;;;;;;5068496;28;20209;-70
2023/10/30 10:44:48;;;;;;;0.60;0.60;;;1.10;99.90;;;;;;5068606;28;20192;-69
2023/10/30 10:47:14;;;;;;;1.10;1.10;;;1.20;99.90;;;;;;5068761;28;20279;-70
2023/10/30 10:49:40;;;;;;;0.63;0.63;;;1.20;99.90;;;;;;5068658;28;20193;-69
2023/10/30 10:52:09;;;;;;;0.63;0.63;;;1.20;99.90;;;;;;5050582;28;20763;-69
2023/10/30 10:54:47;;;;;;;0.60;0.60;;;1.20;99.90;;;;;;5071275;28;20273;-69
2023/10/30 10:57:18;;;;;;;0.60;0.60;;;1.20;99.90;;;;;;5088771;28;20199;-69
2023/10/30 10:59:55;;;;;;;0.60;0.60;;;1.20;99.90;;;;;;5088671;28;20188;-68
2023/10/30 11:02:29;;;;;;;0.75;0.75;;;1.30;99.90;;;;;;5088654;28;20212;-69
2023/10/30 11:04:57;;;;;;;0.70;0.70;;;1.20;99.90;;;;;;5087688;28;20279;-69
2023/10/30 11:07:41;;;;;;;0.70;0.70;;;1.30;99.90;;;;;;5108765;28;20557;-69
2023/10/30 11:10:20;;;;;;;0.50;0.50;;;1.30;99.90;;;;;;5108987;28;20187;-69
2023/10/30 11:13:20;;;;;;;0.60;0.60;;;1.30;99.90;;;;;;5083232;28;20234;-68
2023/10/30 11:16:26;;;;;;;0.60;0.60;;;1.20;99.90;;;;;;5085056;28;20252;-69
2023/10/30 11:18:56;;;;;;;0.75;0.75;;;1.20;99.90;;;;;;5095527;28;20191;-69
2023/10/30 11:21:28;;;;;;;0.70;0.70;;;1.20;99.90;;;;;;5108783;28;20227;-69
2023/10/30 11:23:56;;;;;;;0.60;0.60;;;1.10;99.90;;;;;;5090472;28;20673;-71
2023/10/30 11:26:36;;;;;;;0.60;0.60;;;1.20;99.90;;;;;;5108931;28;20195;-67
2023/10/30 11:29:05;;;;;;;0.70;0.70;;;1.10;99.90;;;;;;5110797;28;20183;-67
2023/10/30 11:31:32;;;;;;;0.63;0.63;;;1.10;99.90;;;;;;5112294;28;20223;-66
2023/10/30 11:34:34;;;;;;;0.70;0.70;;;1.20;99.90;;;;;;5112265;28;20192;-66
2023/10/30 11:37:12;;;;;;;0.60;0.60;;;1.10;99.90;;;;;;5111998;28;20183;-67
2023/10/30 11:39:39;;;;;;;0.60;0.60;;;1.10;99.90;;;;;;5112232;28;20709;-68
2023/10/30 11:42:29;;;;;;;0.50;0.50;;;1.10;99.90;;;;;;5112089;28;20215;-67
2023/10/30 11:45:18;;;;;;;0.50;0.50;;;1.00;99.90;;;;;;5112128;28;20194;-69
2023/10/30 11:47:49;;;;;;;0.60;0.60;;;1.00;99.90;;;;;;5112049;28;20195;-69
2023/10/30 11:50:18;;;;;;;0.60;0.60;;;1.00;99.90;;;;;;5112021;28;20195;-68
2023/10/30 11:52:46;;;;;;;0.60;0.60;;;1.00;99.90;;;;;;5093443;28;20200;-67
2023/10/30 11:55:12;;;;;;;0.70;0.70;;;1.00;99.90;;;;;;5103253;28;20243;-68
2023/10/30 11:57:38;;;;;;;3.42;2.35;;;1.00;99.90;;;;;;5091560;28;20642;-67
2023/10/30 12:00:05;;;;;;;0.60;0.60;;;1.00;99.90;;;;;;5091701;28;20223;-69
2023/10/30 12:02:31;;;;;;;0.60;0.60;;;1.00;99.90;;;;;;5091550;28;20211;-66
2023/10/30 12:05:07;;;;;;;0.70;0.70;;;1.00;99.90;;;;;;5091325;28;20658;-69
2023/10/30 12:07:32;;;;;;;0.70;0.70;;;1.00;99.90;;;;;;5091110;28;20266;-70
2023/10/30 12:10:02;;;;;;;0.93;0.80;;;1.00;99.90;;;;;;5090055;28;20192;-71
2023/10/30 12:12:29;;;;;;;0.70;0.70;;;1.10;99.90;;;;;;5091257;28;20211;-71
2023/10/30 12:14:58;;;;;;;0.55;0.55;;;1.10;99.90;;;;;;5091158;28;20694;-71
2023/10/30 12:17:24;;;;;;;0.40;0.40;;;1.10;99.90;;;;;;5091238;28;20196;-72
2023/10/30 12:19:49;;;;;;;0.60;0.60;;;1.10;99.90;;;;;;5090568;28;20200;-72
2023/10/30 12:22:15;;;;;;;0.60;0.60;;;1.10;99.90;;;;;;5072865;28;20218;-71
2023/10/30 12:24:42;;;;;;;0.60;0.60;;;1.10;99.90;;;;;;5090876;28;20245;-71
2023/10/30 12:27:08;;;;;;;0.70;0.70;;;1.10;99.90;;;;;;5072917;28;20295;-71
2023/10/30 12:29:34;;;;;;;0.63;0.63;;;1.10;99.90;;;;;;5090829;28;20271;-71
2023/10/30 12:32:07;;;;;;;0.60;0.60;;;0.90;99.90;;;;;;5072354;28;20219;-71
2023/10/30 12:34:36;;;;;;;0.60;0.60;;;0.90;99.90;;;;;;5090963;28;20635;-71
2023/10/30 12:37:26;;;;;;;0.60;0.60;;;0.90;99.90;;;;;;5090794;28;20185;-70
2023/10/30 12:40:08;;;;;;;0.60;0.60;;;0.90;99.90;;;;;;5090412;28;20200;-70
2023/10/30 12:42:39;;;;;;;0.60;0.60;;;0.90;99.90;;;;;;5072568;28;20204;-70
2023/10/30 12:45:16;;;;;;;0.60;0.60;;;0.80;99.90;;;;;;5072787;28;20192;-70
2023/10/30 12:47:44;;;;;;;0.50;0.50;;;0.80;99.90;;;;;;5072533;28;20282;-70
2023/10/30 12:50:11;;;;;;;0.50;0.50;;;0.80;99.90;;;;;;5090653;28;20627;-70
2023/10/30 12:52:37;;;;;;;0.65;0.65;;;0.80;99.90;;;;;;5082439;28;20200;-71
2023/10/30 12:55:03;;;;;;;0.60;0.60;;;0.70;99.90;;;;;;5076947;28;20702;-70
2023/10/30 12:57:29;;;;;;;0.60;0.60;;;0.70;99.90;;;;;;5072078;28;20211;-71